createdAt,value
2023-03-02T00:02:04.466Z,4.30
2023-03-02T00:04:45.066Z,4.20
2023-03-02T00:07:13.660Z,4.20
2023-03-02T00:09:40.991Z,4.20
2023-03-02T00:12:07.949Z,4.10
2023-03-02T00:14:35.130Z,4.10
2023-03-02T00:17:02.895Z,4.00
2023-03-02T00:19:29.921Z,4.00
2023-03-02T00:21:56.760Z,4.00
2023-03-02T00:24:23.444Z,3.90
2023-03-02T00:26:50.224Z,3.90
2023-03-02T00:29:16.936Z,3.80
2023-03-02T00:31:44.447Z,3.80
2023-03-02T00:34:11.416Z,3.80
2023-03-02T00:36:38.225Z,3.70
2023-03-02T00:39:05.248Z,3.70
2023-03-02T00:41:32.088Z,3.70
2023-03-02T00:43:58.821Z,3.60
2023-03-02T00:46:25.700Z,3.60
2023-03-02T00:48:52.840Z,3.60
2023-03-02T00:51:19.756Z,3.70
2023-03-02T00:53:46.685Z,3.70
2023-03-02T00:56:14.062Z,3.70
2023-03-02T00:58:40.872Z,3.70
2023-03-02T01:01:09.969Z,3.70
2023-03-02T01:03:37.096Z,3.70
2023-03-02T01:06:05.478Z,3.80
2023-03-02T01:08:32.340Z,3.80
2023-03-02T01:11:01.398Z,3.70
2023-03-02T01:13:28.619Z,3.70
2023-03-02T01:16:02.712Z,3.70
2023-03-02T01:18:30.159Z,3.70
2023-03-02T01:21:04.327Z,3.80
2023-03-02T01:23:31.087Z,3.80
2023-03-02T01:25:57.955Z,3.80
2023-03-02T01:28:24.850Z,3.80
2023-03-02T01:30:51.905Z,3.90
2023-03-02T01:33:19.321Z,3.90
2023-03-02T01:35:46.919Z,3.90
2023-03-02T01:38:14.069Z,3.90
2023-03-02T01:40:40.913Z,3.90
2023-03-02T01:43:14.462Z,3.90
2023-03-02T01:45:54.678Z,4.00
2023-03-02T01:48:45.033Z,4.00
2023-03-02T01:51:15.093Z,4.00
2023-03-02T01:53:46.620Z,4.00
2023-03-02T01:56:17.704Z,4.00
2023-03-02T01:58:44.532Z,4.00
2023-03-02T02:01:15.799Z,4.00
2023-03-02T02:03:48.183Z,3.90
2023-03-02T02:06:27.039Z,3.90
2023-03-02T02:08:54.466Z,3.90
2023-03-02T02:11:21.196Z,3.90
2023-03-02T02:13:47.978Z,3.90
2023-03-02T02:16:15.013Z,3.80
2023-03-02T02:18:41.840Z,3.90
2023-03-02T02:21:08.620Z,3.80
2023-03-02T02:23:38.143Z,3.80
2023-03-02T02:26:32.207Z,3.80
2023-03-02T02:29:33.259Z,3.80
2023-03-02T02:32:21.323Z,3.80
2023-03-02T02:34:53.428Z,3.70
2023-03-02T02:37:28.939Z,3.70
2023-03-02T02:39:55.808Z,3.60
2023-03-02T02:42:39.759Z,3.60
2023-03-02T02:45:16.248Z,3.50
2023-03-02T02:47:43.726Z,3.40
2023-03-02T02:50:21.968Z,3.30
2023-03-02T02:52:51.634Z,3.30
2023-03-02T02:55:21.137Z,3.20
2023-03-02T02:57:47.812Z,3.20
2023-03-02T03:00:23.861Z,3.10
2023-03-02T03:03:30.659Z,3.10
2023-03-02T03:05:58.924Z,3.00
2023-03-02T03:08:44.169Z,3.00
2023-03-02T03:11:14.456Z,2.90
2023-03-02T03:13:42.301Z,2.90
2023-03-02T03:16:11.640Z,2.90
2023-03-02T03:18:38.702Z,2.80
2023-03-02T03:21:05.736Z,2.80
2023-03-02T03:23:32.406Z,2.80
2023-03-02T03:25:59.082Z,2.70
2023-03-02T03:28:25.899Z,2.70
2023-03-02T03:30:52.649Z,2.60
2023-03-02T03:33:19.376Z,2.60
2023-03-02T03:35:46.221Z,2.60
2023-03-02T03:38:14.317Z,2.50
2023-03-02T03:40:41.161Z,2.50
2023-03-02T03:43:07.841Z,2.50
2023-03-02T03:45:34.653Z,2.50
2023-03-02T03:48:01.343Z,2.40
2023-03-02T03:50:28.407Z,2.40
2023-03-02T03:52:55.171Z,2.40
2023-03-02T03:55:22.083Z,2.40
2023-03-02T03:57:48.849Z,2.40
2023-03-02T04:00:17.264Z,2.40
2023-03-02T04:02:44.048Z,2.40
2023-03-02T04:05:10.811Z,2.40
2023-03-02T04:07:38.181Z,2.30
2023-03-02T04:10:06.084Z,2.30
2023-03-02T04:12:37.170Z,2.30
2023-03-02T04:15:04.873Z,2.30
2023-03-02T04:17:31.573Z,2.20
2023-03-02T04:19:59.444Z,2.20
2023-03-02T04:22:26.873Z,2.20
2023-03-02T04:24:53.717Z,2.20
2023-03-02T04:27:20.448Z,2.10
2023-03-02T04:29:47.329Z,2.10
2023-03-02T04:32:14.882Z,2.00
2023-03-02T04:34:41.857Z,2.00
2023-03-02T04:37:08.582Z,2.00
2023-03-02T04:39:35.459Z,1.90
2023-03-02T04:42:02.259Z,1.90
2023-03-02T04:44:29.146Z,1.90
2023-03-02T04:46:56.335Z,1.80
2023-03-02T04:49:23.061Z,1.80
2023-03-02T04:51:50.584Z,1.80
2023-03-02T04:54:21.909Z,1.80
2023-03-02T04:56:48.753Z,1.80
2023-03-02T04:59:20.262Z,1.80
2023-03-02T05:01:47.138Z,1.80
2023-03-02T05:04:14.070Z,1.80
2023-03-02T05:06:40.833Z,1.80
2023-03-02T05:09:07.580Z,1.70
2023-03-02T05:11:34.300Z,1.70
2023-03-02T05:14:04.552Z,1.70
2023-03-02T05:16:33.051Z,1.60
2023-03-02T05:19:00.407Z,1.60
2023-03-02T05:21:27.268Z,1.60
2023-03-02T05:23:54.074Z,1.50
2023-03-02T05:26:20.853Z,1.50
2023-03-02T05:28:47.655Z,1.50
2023-03-02T05:31:44.983Z,1.40
2023-03-02T05:34:13.019Z,1.40
2023-03-02T05:36:39.763Z,1.40
2023-03-02T05:39:06.766Z,1.30
2023-03-02T05:41:33.513Z,1.20
2023-03-02T05:44:00.308Z,1.30
2023-03-02T05:46:27.192Z,1.20
2023-03-02T05:48:53.939Z,1.20
2023-03-02T05:51:20.611Z,1.10
2023-03-02T05:53:47.364Z,1.10
2023-03-02T05:56:15.330Z,1.10
2023-03-02T05:58:42.440Z,1.00
2023-03-02T06:01:12.253Z,0.90
2023-03-02T06:03:41.630Z,0.80
2023-03-02T06:06:14.515Z,0.80
2023-03-02T06:08:42.612Z,0.90
2023-03-02T06:11:10.138Z,0.90
2023-03-02T06:13:37.441Z,0.90
2023-03-02T06:16:04.808Z,1.00
2023-03-02T06:18:31.654Z,1.00
2023-03-02T06:20:58.935Z,1.00
2023-03-02T06:23:26.110Z,1.00
2023-03-02T06:25:52.905Z,1.00
2023-03-02T06:28:20.343Z,1.00
2023-03-02T06:30:52.543Z,1.00
2023-03-02T06:33:21.333Z,1.00
2023-03-02T06:35:49.385Z,1.00
2023-03-02T06:38:17.537Z,1.00
2023-03-02T06:40:44.761Z,1.00
2023-03-02T06:43:11.625Z,0.90
2023-03-02T06:45:38.544Z,1.00
2023-03-02T06:48:05.708Z,0.80
2023-03-02T06:50:33.010Z,0.80
2023-03-02T06:53:00.272Z,0.80
2023-03-02T06:55:27.050Z,0.90
2023-03-02T06:57:53.743Z,0.80
2023-03-02T07:00:26.287Z,0.70
2023-03-02T07:02:53.356Z,0.80
2023-03-02T07:05:20.420Z,0.80
2023-03-02T07:07:47.439Z,0.80
2023-03-02T07:10:14.283Z,0.80
2023-03-02T07:12:41.490Z,0.70
2023-03-02T07:15:11.349Z,0.80
2023-03-02T07:17:38.862Z,0.80
2023-03-02T07:20:06.424Z,0.80
2023-03-02T07:22:33.186Z,0.80
2023-03-02T07:24:59.939Z,0.90
2023-03-02T07:27:26.720Z,1.00
2023-03-02T07:29:53.507Z,1.10
2023-03-02T07:32:20.385Z,1.10
2023-03-02T07:34:47.257Z,1.30
2023-03-02T07:37:14.086Z,1.30
2023-03-02T07:39:40.830Z,1.50
2023-03-02T07:42:08.979Z,1.50
2023-03-02T07:44:35.786Z,1.70
2023-03-02T07:47:02.650Z,1.80
2023-03-02T07:49:29.326Z,1.90
2023-03-02T07:51:56.074Z,2.00
2023-03-02T07:54:22.817Z,2.10
2023-03-02T07:56:49.549Z,2.20
2023-03-02T07:59:16.317Z,2.30
2023-03-02T08:01:43.670Z,2.40
2023-03-02T08:04:10.380Z,2.50
2023-03-02T08:06:37.146Z,2.60
2023-03-02T08:09:04.308Z,2.70
2023-03-02T08:11:31.295Z,2.80
2023-03-02T08:14:01.974Z,2.90
2023-03-02T08:16:29.379Z,3.00
2023-03-02T08:18:59.330Z,3.10
2023-03-02T08:21:26.908Z,3.30
2023-03-02T08:23:54.223Z,3.40
2023-03-02T08:26:21.270Z,3.40
2023-03-02T08:28:48.181Z,3.50
2023-03-02T08:31:14.973Z,3.50
2023-03-02T08:33:41.989Z,3.60
2023-03-02T08:36:15.038Z,3.70
2023-03-02T08:38:42.371Z,3.80
2023-03-02T08:41:15.165Z,3.90
2023-03-02T08:43:42.528Z,3.90
2023-03-02T08:46:10.983Z,4.10
2023-03-02T08:48:37.984Z,4.20
2023-03-02T08:51:10.081Z,4.20
2023-03-02T08:53:39.472Z,4.20
2023-03-02T08:56:14.787Z,4.20
2023-03-02T08:58:41.684Z,4.30
2023-03-02T09:01:20.605Z,4.30
2023-03-02T09:03:47.630Z,4.40
2023-03-02T09:06:14.583Z,4.40
2023-03-02T09:08:41.618Z,4.50
2023-03-02T09:11:08.396Z,4.60
2023-03-02T09:13:35.254Z,4.70
2023-03-02T09:16:02.073Z,4.80
2023-03-02T09:18:29.626Z,4.90
2023-03-02T09:20:57.141Z,4.90
2023-03-02T09:23:24.962Z,5.00
2023-03-02T09:25:52.722Z,5.00
2023-03-02T09:28:21.851Z,5.10
2023-03-02T09:30:53.021Z,5.20
2023-03-02T09:33:20.551Z,5.20
2023-03-02T09:35:47.736Z,5.30
2023-03-02T09:38:18.277Z,5.40
2023-03-02T09:40:48.174Z,5.50
2023-03-02T09:43:29.588Z,5.40
2023-03-02T09:46:27.677Z,5.40
2023-03-02T09:49:19.149Z,5.50
2023-03-02T09:51:49.410Z,5.60
2023-03-02T09:54:20.286Z,5.70
2023-03-02T09:56:49.128Z,5.90
2023-03-02T09:59:23.193Z,5.90
2023-03-02T10:02:29.759Z,6.10
2023-03-02T10:04:59.033Z,6.20
2023-03-02T10:07:49.915Z,6.30
2023-03-02T10:10:36.262Z,6.20
2023-03-02T10:13:06.869Z,6.20
2023-03-02T10:15:58.577Z,6.20
2023-03-02T10:18:38.526Z,6.30
2023-03-02T10:21:25.745Z,6.40
2023-03-02T10:24:23.108Z,6.50
2023-03-02T10:26:53.737Z,6.70
2023-03-02T10:29:33.104Z,6.90
2023-03-02T10:32:15.187Z,7.10
2023-03-02T10:34:42.462Z,7.20
2023-03-02T10:37:23.042Z,7.30
2023-03-02T10:39:50.156Z,7.30
2023-03-02T10:42:37.659Z,7.40
2023-03-02T10:45:27.076Z,7.40
2023-03-02T10:48:04.510Z,7.30
2023-03-02T10:50:31.394Z,7.30
2023-03-02T10:53:01.082Z,7.40
2023-03-02T10:55:29.572Z,7.40
2023-03-02T10:58:02.303Z,7.40
2023-03-02T11:00:30.274Z,7.40
2023-03-02T11:03:17.970Z,7.40
2023-03-02T11:05:45.544Z,7.60
2023-03-02T11:08:18.534Z,7.80
2023-03-02T11:11:01.441Z,7.80
2023-03-02T11:13:31.843Z,7.80
2023-03-02T11:16:00.827Z,7.90
2023-03-02T11:18:40.681Z,7.90
2023-03-02T11:21:35.655Z,8.00
2023-03-02T11:24:10.343Z,7.80
2023-03-02T11:26:44.794Z,7.70
2023-03-02T11:29:29.961Z,7.70
2023-03-02T11:32:09.119Z,7.70
2023-03-02T11:34:54.850Z,7.90
2023-03-02T11:37:23.312Z,7.90
2023-03-02T11:39:55.345Z,8.00
2023-03-02T11:42:37.482Z,8.10
2023-03-02T11:45:15.639Z,8.40
2023-03-02T11:48:04.325Z,8.80
2023-03-02T11:50:32.867Z,8.80
2023-03-02T11:53:01.203Z,9.10
2023-03-02T11:55:29.019Z,9.40
2023-03-02T12:00:28.831Z,9.40
2023-03-02T12:03:19.864Z,9.10
2023-03-02T12:05:53.307Z,8.90
2023-03-02T12:08:22.725Z,8.70
2023-03-02T12:11:09.288Z,8.50
2023-03-02T12:13:37.338Z,8.60
2023-03-02T12:16:26.191Z,8.80
2023-03-02T12:18:54.802Z,9.10
2023-03-02T12:21:23.104Z,9.50
2023-03-02T12:23:50.038Z,9.90
2023-03-02T12:26:19.641Z,10.30
2023-03-02T12:29:06.353Z,10.40
2023-03-02T12:31:53.405Z,10.40
2023-03-02T12:34:39.016Z,10.30
2023-03-02T12:37:11.745Z,10.10
2023-03-02T12:40:03.093Z,10.10
2023-03-02T12:42:51.608Z,10.10
2023-03-02T12:45:36.453Z,10.30
2023-03-02T12:48:27.547Z,10.70
2023-03-02T12:50:59.124Z,11.10
2023-03-02T12:53:26.517Z,11.40
2023-03-02T12:55:53.490Z,11.40
2023-03-02T12:58:25.006Z,11.60
2023-03-02T13:00:56.297Z,11.70
2023-03-02T13:03:23.402Z,12.00
2023-03-02T13:05:50.762Z,12.20
2023-03-02T13:08:28.853Z,12.70
2023-03-02T13:11:00.553Z,12.80
2023-03-02T13:13:50.020Z,13.00
2023-03-02T13:16:27.558Z,13.00
2023-03-02T13:19:04.354Z,13.10
2023-03-02T13:21:38.674Z,12.80
2023-03-02T13:24:29.510Z,12.50
2023-03-02T13:27:00.642Z,12.60
2023-03-02T13:29:28.182Z,13.00
2023-03-02T13:31:55.483Z,13.30
2023-03-02T13:34:26.215Z,13.60
2023-03-02T13:36:53.115Z,13.80
2023-03-02T13:39:28.313Z,14.00
2023-03-02T13:41:59.552Z,14.20
2023-03-02T13:44:28.293Z,14.20
2023-03-02T13:46:55.114Z,14.00
2023-03-02T13:49:32.619Z,13.90
2023-03-02T13:52:08.098Z,13.80
2023-03-02T13:54:35.795Z,13.90
2023-03-02T13:57:03.918Z,13.90
2023-03-02T13:59:32.197Z,14.00
2023-03-02T14:01:59.260Z,14.30
2023-03-02T14:04:26.188Z,14.60
2023-03-02T14:06:54.188Z,14.90
2023-03-02T14:09:23.456Z,15.20
2023-03-02T14:11:55.022Z,15.60
2023-03-02T14:14:23.769Z,15.70
2023-03-02T14:16:50.778Z,15.90
2023-03-02T14:19:18.576Z,15.90
2023-03-02T14:21:46.113Z,16.00
2023-03-02T14:24:13.726Z,16.30
2023-03-02T14:26:44.792Z,16.80
2023-03-02T14:29:27.016Z,16.60
2023-03-02T14:31:55.239Z,16.60
2023-03-02T14:34:22.304Z,16.90
2023-03-02T14:36:51.004Z,16.90
2023-03-02T14:39:22.393Z,16.30
2023-03-02T14:41:53.768Z,16.60
2023-03-02T14:44:21.667Z,16.50
2023-03-02T14:46:48.731Z,16.60
2023-03-02T14:49:15.779Z,16.70
2023-03-02T14:51:43.386Z,16.70
2023-03-02T14:54:14.182Z,16.90
2023-03-02T14:56:41.079Z,17.50
2023-03-02T14:59:09.652Z,17.50
2023-03-02T15:01:36.486Z,17.00
2023-03-02T15:04:03.332Z,16.60
2023-03-02T15:06:31.771Z,16.30
2023-03-02T15:08:59.829Z,16.40
2023-03-02T15:11:27.045Z,16.40
2023-03-02T15:13:54.335Z,16.70
2023-03-02T15:16:21.327Z,17.00
2023-03-02T15:18:53.135Z,17.20
2023-03-02T15:21:22.609Z,17.10
2023-03-02T15:23:49.764Z,16.30
2023-03-02T15:26:17.034Z,16.40
2023-03-02T15:28:45.712Z,16.00
2023-03-02T15:31:14.487Z,15.90
2023-03-02T15:33:41.965Z,15.90
2023-03-02T15:36:09.213Z,16.00
2023-03-02T15:38:36.900Z,15.80
2023-03-02T15:41:05.953Z,16.10
2023-03-02T15:43:33.073Z,16.30
2023-03-02T15:46:02.398Z,16.30
2023-03-02T15:48:29.909Z,16.50
2023-03-02T15:51:01.121Z,16.60
2023-03-02T15:53:28.096Z,16.80
2023-03-02T15:55:54.932Z,16.80
2023-03-02T15:58:24.877Z,16.90
2023-03-02T16:00:53.567Z,16.90
2023-03-02T16:03:20.532Z,16.50
2023-03-02T16:05:47.373Z,16.10
2023-03-02T16:08:14.196Z,16.10
2023-03-02T16:10:43.015Z,16.50
2023-03-02T16:13:10.445Z,16.70
2023-03-02T16:15:41.479Z,16.60
2023-03-02T16:18:09.168Z,16.50
2023-03-02T16:20:36.649Z,16.40
2023-03-02T16:23:06.137Z,16.50
2023-03-02T16:25:39.695Z,16.30
2023-03-02T16:28:06.977Z,16.50
2023-03-02T16:30:34.231Z,16.60
2023-03-02T16:33:02.110Z,16.50
2023-03-02T16:35:29.259Z,16.30
2023-03-02T16:37:56.220Z,15.20
2023-03-02T16:40:23.289Z,14.20
2023-03-02T16:42:51.402Z,13.40
2023-03-02T16:45:19.076Z,12.80
2023-03-02T16:47:45.990Z,12.30
2023-03-02T16:50:13.147Z,12.00
2023-03-02T16:52:40.388Z,11.60
2023-03-02T16:55:13.027Z,11.30
2023-03-02T16:57:39.911Z,11.00
2023-03-02T17:00:08.578Z,10.70
2023-03-02T17:02:35.731Z,10.40
2023-03-02T17:05:02.616Z,10.20
2023-03-02T17:07:29.462Z,10.20
2023-03-02T17:09:56.637Z,9.90
2023-03-02T17:12:23.583Z,9.70
2023-03-02T17:14:50.604Z,9.50
2023-03-02T17:17:17.499Z,9.40
2023-03-02T17:19:44.541Z,9.20
2023-03-02T17:22:13.578Z,9.10
2023-03-02T17:24:41.650Z,9.00
2023-03-02T17:27:19.043Z,8.90
2023-03-02T17:29:51.332Z,8.80
2023-03-02T17:32:18.412Z,8.70
2023-03-02T17:34:45.341Z,8.60
2023-03-02T17:37:12.251Z,8.50
2023-03-02T17:39:39.324Z,8.40
2023-03-02T17:42:06.693Z,8.30
2023-03-02T17:44:34.727Z,8.10
2023-03-02T17:47:06.456Z,8.00
2023-03-02T17:49:33.369Z,7.90
2023-03-02T17:52:00.279Z,7.80
2023-03-02T17:54:27.516Z,7.70
2023-03-02T17:56:54.354Z,7.60
2023-03-02T17:59:21.226Z,7.50
2023-03-02T18:01:48.064Z,7.50
2023-03-02T18:04:15.070Z,7.40
2023-03-02T18:06:41.990Z,7.30
2023-03-02T18:09:08.845Z,7.30
2023-03-02T18:11:36.079Z,7.20
2023-03-02T18:14:03.047Z,7.20
2023-03-02T18:16:30.076Z,7.10
2023-03-02T18:18:57.640Z,7.10
2023-03-02T18:21:24.613Z,7.00
2023-03-02T18:23:51.611Z,7.00
2023-03-02T18:26:18.861Z,7.00
2023-03-02T18:28:45.638Z,6.90
2023-03-02T18:31:16.178Z,6.80
2023-03-02T18:33:43.071Z,6.80
2023-03-02T18:36:10.099Z,6.70
2023-03-02T18:38:36.996Z,6.60
2023-03-02T18:41:05.085Z,6.60
2023-03-02T18:43:34.736Z,6.60
2023-03-02T18:46:04.090Z,6.60
2023-03-02T18:48:31.407Z,6.50
2023-03-02T18:50:58.635Z,6.40
2023-03-02T18:53:26.584Z,6.40
2023-03-02T18:55:56.633Z,6.30
2023-03-02T18:58:24.116Z,6.30
2023-03-02T19:00:52.187Z,6.20
2023-03-02T19:03:19.079Z,6.20
2023-03-02T19:05:45.869Z,6.10
2023-03-02T19:08:12.608Z,6.00
2023-03-02T19:10:39.773Z,6.00
2023-03-02T19:13:09.234Z,5.90
2023-03-02T19:15:37.364Z,5.90
2023-03-02T19:18:04.491Z,5.90
2023-03-02T19:20:31.342Z,5.80
2023-03-02T19:22:58.387Z,5.80
2023-03-02T19:25:25.351Z,5.80
2023-03-02T19:27:52.200Z,5.80
2023-03-02T19:30:22.426Z,5.70
2023-03-02T19:32:49.442Z,5.70
2023-03-02T19:35:19.506Z,5.70
2023-03-02T19:37:46.279Z,5.70
2023-03-02T19:40:13.658Z,5.70
2023-03-02T19:42:40.620Z,5.70
2023-03-02T19:45:12.553Z,5.60
2023-03-02T19:47:39.375Z,5.60
2023-03-02T19:50:06.828Z,5.60
2023-03-02T19:52:33.669Z,5.50
2023-03-02T19:55:01.056Z,5.40
2023-03-02T19:57:28.351Z,5.40
2023-03-02T19:59:55.142Z,5.50
2023-03-02T20:02:22.372Z,5.40
2023-03-02T20:04:50.974Z,5.50
2023-03-02T20:07:19.470Z,5.40
2023-03-02T20:09:46.556Z,5.40
2023-03-02T20:12:13.611Z,5.40
2023-03-02T20:14:42.939Z,5.40
2023-03-02T20:17:10.744Z,5.40
2023-03-02T20:19:37.619Z,5.30
2023-03-02T20:22:07.089Z,5.30
2023-03-02T20:24:33.987Z,5.30
2023-03-02T20:27:00.826Z,5.20
2023-03-02T20:29:28.018Z,5.20
2023-03-02T20:31:54.905Z,5.10
2023-03-02T20:34:21.906Z,5.10
2023-03-02T20:36:50.004Z,5.00
2023-03-02T20:39:22.308Z,5.00
2023-03-02T20:41:49.394Z,5.00
2023-03-02T20:44:16.415Z,5.00
2023-03-02T20:46:46.341Z,5.00
2023-03-02T20:49:15.370Z,5.00
2023-03-02T20:51:43.767Z,5.00
2023-03-02T20:54:10.537Z,5.10
2023-03-02T20:56:37.323Z,5.10
2023-03-02T20:59:04.145Z,5.20
2023-03-02T21:01:31.966Z,5.20
2023-03-02T21:03:58.844Z,5.20
2023-03-02T21:06:25.604Z,5.20
2023-03-02T21:08:52.609Z,5.20
2023-03-02T21:11:20.337Z,5.20
2023-03-02T21:13:47.432Z,5.20
2023-03-02T21:16:22.992Z,5.30
2023-03-02T21:18:49.859Z,5.30
2023-03-02T21:21:16.892Z,5.30
2023-03-02T21:23:43.917Z,5.40
2023-03-02T21:26:11.931Z,5.40
2023-03-02T21:28:38.971Z,5.40
2023-03-02T21:31:06.259Z,5.40
2023-03-02T21:33:33.938Z,5.40
2023-03-02T21:36:00.735Z,5.40
2023-03-02T21:38:27.771Z,5.40
2023-03-02T21:40:55.126Z,5.40
2023-03-02T21:43:22.080Z,5.40
2023-03-02T21:45:50.327Z,5.40
2023-03-02T21:48:17.186Z,5.40
2023-03-02T21:50:43.994Z,5.40
2023-03-02T21:53:10.973Z,5.40
2023-03-02T21:55:38.118Z,5.40
2023-03-02T21:58:04.893Z,5.40
2023-03-02T22:00:34.011Z,5.40
2023-03-02T22:03:01.019Z,5.40
2023-03-02T22:05:28.110Z,5.40
2023-03-02T22:07:55.184Z,5.40
2023-03-02T22:10:46.639Z,5.40
2023-03-02T22:13:13.494Z,5.50
2023-03-02T22:15:40.328Z,5.40
2023-03-02T22:18:20.407Z,5.50
2023-03-02T22:20:49.411Z,5.50
2023-03-02T22:23:21.368Z,5.50
2023-03-02T22:25:52.997Z,5.50
2023-03-02T22:28:23.558Z,5.50
2023-03-02T22:30:51.417Z,5.50
2023-03-02T22:33:25.771Z,5.40
2023-03-02T22:35:58.942Z,5.50
2023-03-02T22:38:27.232Z,5.40
2023-03-02T22:40:54.278Z,5.50
2023-03-02T22:43:31.828Z,5.50
2023-03-02T22:46:07.647Z,5.50
2023-03-02T22:48:37.833Z,5.40
2023-03-02T22:51:15.332Z,5.40
2023-03-02T22:53:54.089Z,5.40
2023-03-02T22:56:37.404Z,5.40
2023-03-02T22:59:29.924Z,5.40
2023-03-02T23:02:01.330Z,5.40
2023-03-02T23:04:31.072Z,5.40
2023-03-02T23:07:00.538Z,5.40
2023-03-02T23:09:35.843Z,5.40
2023-03-02T23:12:12.646Z,5.40
2023-03-02T23:14:49.473Z,5.40
2023-03-02T23:17:38.622Z,5.40
2023-03-02T23:20:07.358Z,5.40
2023-03-02T23:22:34.121Z,5.30
2023-03-02T23:25:00.860Z,5.40
2023-03-02T23:27:28.258Z,5.40
2023-03-02T23:29:55.109Z,5.40
2023-03-02T23:32:22.053Z,5.40
2023-03-02T23:34:48.921Z,5.40
2023-03-02T23:37:15.621Z,5.50
2023-03-02T23:39:43.835Z,5.40
2023-03-02T23:42:12.706Z,5.50
2023-03-02T23:44:39.436Z,5.50
2023-03-02T23:47:06.253Z,5.50
2023-03-02T23:49:33.019Z,5.50
2023-03-02T23:51:59.806Z,5.40
2023-03-02T23:54:26.578Z,5.50
2023-03-02T23:56:53.322Z,5.40
2023-03-02T23:59:20.195Z,5.40
